createdAt,value
2023-05-14T00:22:53.993Z,100.00
2023-05-14T00:25:25.342Z,100.00
2023-05-14T00:41:21.261Z,100.00
2023-05-14T00:43:51.042Z,100.00
2023-05-14T00:46:19.183Z,100.00
2023-05-14T00:48:48.777Z,100.00
2023-05-14T00:51:17.381Z,100.00
2023-05-14T00:53:44.958Z,100.00
2023-05-14T00:56:12.899Z,100.00
2023-05-14T00:58:40.049Z,100.00
2023-05-14T01:09:21.108Z,100.00
2023-05-14T01:20:52.442Z,100.00
2023-05-14T01:45:02.651Z,100.00
2023-05-14T02:33:36.198Z,100.00
2023-05-14T02:36:05.840Z,100.00
2023-05-14T02:38:34.189Z,100.00
2023-05-14T03:08:06.061Z,100.00
2023-05-14T03:13:19.186Z,100.00
2023-05-14T03:16:01.338Z,100.00
2023-05-14T03:31:59.660Z,100.00
2023-05-14T03:50:48.023Z,100.00
2023-05-14T03:53:19.742Z,100.00
2023-05-14T04:01:16.190Z,100.00
2023-05-14T04:09:08.284Z,100.00
2023-05-14T04:11:38.915Z,100.00
2023-05-14T04:19:34.268Z,100.00
2023-05-14T04:27:27.063Z,100.00
2023-05-14T04:32:36.148Z,100.00
2023-05-14T04:40:34.333Z,100.00
2023-05-14T04:43:04.321Z,100.00
2023-05-14T04:45:36.252Z,100.00
2023-05-14T05:04:13.304Z,100.00
2023-05-14T05:14:44.374Z,100.00
2023-05-14T05:17:12.100Z,100.00
2023-05-14T05:19:44.114Z,100.00
2023-05-14T05:22:11.871Z,100.00
2023-05-14T05:24:39.731Z,100.00
2023-05-14T05:29:49.018Z,100.00
2023-05-14T05:32:17.078Z,100.00
2023-05-14T05:34:48.149Z,100.00
2023-05-14T05:37:15.397Z,100.00
2023-05-14T05:39:47.284Z,100.00
2023-05-14T05:42:17.085Z,100.00
2023-05-14T05:44:52.056Z,100.00
2023-05-14T05:47:19.703Z,100.00
2023-05-14T05:55:12.014Z,100.00
2023-05-14T05:57:40.326Z,100.00
2023-05-14T06:00:17.830Z,100.00
2023-05-14T06:10:56.203Z,100.00
2023-05-14T06:13:24.857Z,100.00
2023-05-14T06:15:59.444Z,100.00
2023-05-14T06:18:29.792Z,100.00
2023-05-14T06:23:42.200Z,100.00
2023-05-14T06:28:51.617Z,100.00
2023-05-14T06:34:03.457Z,100.00
2023-05-14T07:17:57.931Z,100.00
2023-05-14T07:31:32.152Z,100.00
2023-05-14T07:34:00.234Z,100.00
2023-05-14T07:39:09.460Z,100.00
2023-05-14T07:41:36.244Z,90.03
2023-05-14T07:44:11.532Z,93.98
2023-05-14T07:46:38.303Z,100.00
2023-05-14T07:49:05.708Z,94.08
2023-05-14T07:54:18.865Z,100.00
2023-05-14T08:02:10.783Z,100.00
2023-05-14T08:29:38.823Z,86.23
2023-05-14T08:37:53.652Z,88.82
2023-05-14T09:17:19.437Z,69.63
2023-05-14T09:19:53.333Z,72.17
2023-05-14T09:22:26.444Z,73.25
2023-05-14T09:25:07.167Z,77.47
2023-05-14T09:27:39.204Z,77.24
2023-05-14T09:30:13.861Z,80.21
2023-05-14T09:38:06.204Z,68.55
2023-05-14T09:40:33.809Z,65.54
2023-05-14T09:43:02.791Z,67.09
2023-05-14T09:45:30.292Z,63.96
2023-05-14T09:48:05.660Z,54.95
2023-05-14T09:50:32.565Z,58.57
2023-05-14T09:52:59.304Z,63.19
2023-05-14T09:55:42.983Z,61.54
2023-05-14T09:58:11.072Z,66.08
2023-05-14T10:01:47.597Z,72.02
2023-05-14T10:09:38.072Z,53.25
2023-05-14T10:14:57.876Z,54.40
2023-05-14T10:17:28.375Z,42.68
2023-05-14T10:19:57.734Z,36.46
2023-05-14T10:22:28.109Z,38.58
2023-05-14T10:24:55.536Z,35.61
2023-05-14T10:27:25.391Z,36.92
2023-05-14T10:29:57.273Z,40.83
2023-05-14T10:32:26.091Z,45.49
2023-05-14T10:34:54.078Z,47.23
2023-05-14T10:37:23.243Z,48.83
2023-05-14T10:39:55.909Z,50.03
2023-05-14T10:42:41.033Z,54.73
2023-05-14T10:45:09.557Z,56.21
2023-05-14T10:47:37.408Z,54.26
2023-05-14T10:50:06.163Z,43.40
2023-05-14T10:52:34.103Z,39.02
2023-05-14T10:55:03.842Z,36.26
2023-05-14T10:57:32.447Z,34.86
2023-05-14T11:00:01.531Z,33.07
2023-05-14T11:02:37.531Z,30.30
2023-05-14T11:05:08.357Z,28.23
2023-05-14T11:07:40.779Z,26.40
2023-05-14T11:10:12.640Z,27.19
2023-05-14T11:12:41.950Z,32.18
2023-05-14T11:15:10.395Z,31.15
2023-05-14T11:17:37.974Z,31.35
2023-05-14T11:20:06.618Z,33.44
2023-05-14T11:22:36.874Z,34.42
2023-05-14T11:25:07.220Z,35.82
2023-05-14T11:27:35.656Z,35.81
2023-05-14T11:30:03.352Z,32.33
2023-05-14T11:32:32.253Z,30.41
2023-05-14T11:34:59.096Z,28.02
2023-05-14T11:37:25.891Z,30.40
2023-05-14T11:39:55.140Z,32.38
2023-05-14T11:42:22.722Z,35.18
2023-05-14T11:44:51.910Z,35.77
2023-05-14T11:47:23.874Z,42.80
2023-05-14T11:49:50.721Z,46.33
2023-05-14T11:52:27.706Z,49.01
2023-05-14T11:54:54.513Z,50.93
2023-05-14T11:57:22.161Z,48.56
2023-05-14T11:59:49.779Z,50.59
2023-05-14T12:05:00.650Z,51.44
2023-05-14T12:07:29.612Z,52.89
2023-05-14T12:10:01.414Z,57.28
2023-05-14T12:12:48.957Z,58.96
2023-05-14T12:15:33.699Z,55.59
2023-05-14T12:18:02.197Z,58.76
2023-05-14T12:20:29.867Z,60.26
2023-05-14T12:22:56.514Z,58.47
2023-05-14T12:25:38.702Z,63.36
2023-05-14T12:28:17.697Z,68.47
2023-05-14T12:30:44.421Z,75.29
2023-05-14T12:33:11.247Z,81.19
2023-05-14T12:35:38.028Z,74.02
2023-05-14T12:38:04.881Z,77.82
2023-05-14T12:40:31.759Z,72.43
2023-05-14T12:42:58.494Z,68.91
2023-05-14T12:45:25.393Z,73.87
2023-05-14T12:47:52.416Z,70.73
2023-05-14T12:50:19.141Z,65.20
2023-05-14T12:52:46.641Z,64.53
2023-05-14T12:55:13.353Z,59.72
2023-05-14T12:57:40.121Z,59.90
2023-05-14T13:00:13.921Z,59.27
2023-05-14T13:02:43.171Z,61.11
2023-05-14T13:05:13.765Z,57.58
2023-05-14T13:07:40.764Z,50.42
2023-05-14T13:10:08.280Z,43.61
2023-05-14T13:12:35.082Z,34.10
2023-05-14T13:15:02.067Z,30.54
2023-05-14T13:17:28.786Z,34.42
2023-05-14T13:19:55.616Z,38.41
2023-05-14T13:26:37.888Z,44.94
2023-05-14T13:29:04.661Z,41.91
2023-05-14T13:31:31.356Z,49.08
2023-05-14T13:34:02.544Z,51.92
2023-05-14T13:36:29.161Z,51.89
2023-05-14T13:38:57.450Z,51.21
2023-05-14T13:41:26.376Z,52.24
2023-05-14T13:43:53.161Z,55.05
2023-05-14T13:46:19.907Z,55.63
2023-05-14T13:48:46.634Z,59.54
2023-05-14T13:51:13.306Z,57.25
2023-05-14T13:53:40.093Z,53.69
2023-05-14T13:56:12.921Z,53.45
2023-05-14T13:59:01.544Z,55.68
2023-05-14T14:01:30.840Z,52.36
2023-05-14T14:04:00.572Z,55.39
2023-05-14T14:06:27.591Z,52.62
2023-05-14T14:08:54.589Z,51.70
2023-05-14T14:11:21.998Z,50.08
2023-05-14T14:13:48.929Z,53.91
2023-05-14T14:16:16.312Z,53.06
2023-05-14T14:18:43.492Z,48.22
2023-05-14T14:21:10.596Z,48.36
2023-05-14T14:23:40.346Z,49.71
2023-05-14T14:26:07.041Z,47.51
2023-05-14T15:38:01.690Z,51.47
2023-05-14T15:40:28.419Z,51.22
2023-05-14T15:42:55.049Z,49.40
2023-05-14T15:45:21.899Z,48.42
2023-05-14T15:47:48.733Z,49.26
2023-05-14T15:50:15.620Z,49.05
2023-05-14T15:52:42.348Z,49.25
2023-05-14T15:55:09.685Z,50.08
2023-05-14T15:57:36.662Z,51.62
2023-05-14T16:00:10.423Z,51.29
2023-05-14T16:02:38.233Z,56.40
2023-05-14T16:05:07.313Z,54.90
2023-05-14T16:07:34.288Z,60.07
2023-05-14T16:10:01.030Z,60.40
2023-05-14T16:12:27.781Z,61.78
2023-05-14T16:14:54.700Z,61.84
2023-05-14T16:17:21.408Z,61.77
2023-05-14T16:19:48.259Z,58.26
2023-05-14T16:22:14.861Z,57.77
2023-05-14T16:24:41.711Z,58.21
2023-05-14T16:27:08.389Z,59.94
2023-05-14T16:29:35.139Z,59.57
2023-05-14T16:32:02.053Z,60.84
2023-05-14T16:34:28.820Z,60.45
2023-05-14T16:36:55.750Z,59.15
2023-05-14T16:39:22.418Z,60.62
2023-05-14T16:41:49.096Z,59.59
2023-05-14T16:44:16.155Z,65.03
2023-05-14T16:46:42.780Z,65.85
2023-05-14T16:49:09.426Z,70.39
2023-05-14T16:51:37.489Z,71.43
2023-05-14T16:54:04.265Z,72.80
2023-05-14T16:56:32.439Z,71.61
2023-05-14T16:58:59.262Z,73.85
2023-05-14T17:01:26.249Z,71.59
2023-05-14T17:03:52.935Z,70.65
2023-05-14T17:06:19.694Z,73.63
2023-05-14T17:08:46.297Z,78.00
2023-05-14T17:11:12.930Z,78.24
2023-05-14T17:13:39.712Z,76.71
2023-05-14T17:16:06.726Z,79.29
2023-05-14T17:18:33.380Z,81.02
2023-05-14T17:21:00.160Z,80.27
2023-05-14T17:23:26.867Z,81.27
2023-05-14T17:25:56.812Z,79.98
2023-05-14T17:28:24.737Z,81.36
2023-05-14T17:30:51.709Z,80.85
2023-05-14T17:33:18.337Z,82.30
2023-05-14T17:35:48.759Z,82.03
2023-05-14T17:38:15.416Z,80.08
2023-05-14T17:40:42.986Z,79.11
2023-05-14T17:43:09.910Z,82.52
2023-05-14T17:45:46.294Z,83.53
2023-05-14T17:48:13.621Z,83.71
2023-05-14T17:50:40.445Z,78.40
2023-05-14T17:53:07.169Z,84.06
2023-05-14T17:55:39.943Z,83.42
2023-05-14T17:58:06.659Z,84.06
2023-05-14T18:00:33.361Z,85.07
2023-05-14T18:03:00.396Z,84.58
2023-05-14T18:05:29.127Z,85.17
2023-05-14T18:07:58.228Z,90.00
2023-05-14T18:10:33.936Z,89.61
2023-05-14T18:13:00.864Z,90.60
2023-05-14T18:15:27.797Z,92.99
2023-05-14T18:17:54.808Z,94.86
2023-05-14T18:20:21.728Z,95.88
2023-05-14T18:22:56.979Z,100.00
2023-05-14T18:25:29.511Z,100.00
2023-05-14T18:28:31.033Z,100.00
2023-05-14T18:31:01.809Z,100.00
2023-05-14T18:33:32.245Z,100.00
2023-05-14T18:36:04.275Z,100.00
2023-05-14T18:38:37.172Z,100.00
2023-05-14T18:41:05.022Z,100.00
2023-05-14T18:43:32.510Z,100.00
2023-05-14T18:46:04.517Z,100.00
2023-05-14T18:48:34.824Z,100.00
2023-05-14T18:51:02.702Z,100.00
2023-05-14T18:53:35.713Z,100.00
2023-05-14T18:56:03.010Z,100.00
2023-05-14T18:58:30.132Z,100.00
2023-05-14T19:00:59.767Z,100.00
2023-05-14T19:03:32.835Z,100.00
2023-05-14T19:06:06.764Z,100.00
2023-05-14T19:08:35.970Z,100.00
2023-05-14T19:11:03.831Z,100.00
2023-05-14T19:13:32.175Z,100.00
2023-05-14T19:16:11.008Z,100.00
2023-05-14T19:18:40.070Z,100.00
2023-05-14T19:21:09.959Z,100.00
2023-05-14T19:23:38.233Z,100.00
2023-05-14T19:26:08.861Z,100.00
2023-05-14T19:28:40.691Z,100.00
2023-05-14T19:31:08.301Z,100.00
2023-05-14T19:33:35.943Z,100.00
2023-05-14T19:36:08.924Z,100.00
2023-05-14T19:38:36.420Z,100.00
2023-05-14T19:41:04.535Z,100.00
2023-05-14T19:43:34.222Z,100.00
2023-05-14T19:46:12.646Z,100.00
2023-05-14T19:48:41.839Z,100.00
2023-05-14T19:51:13.749Z,100.00
2023-05-14T19:53:41.480Z,100.00
2023-05-14T19:56:08.828Z,100.00
2023-05-14T19:58:38.830Z,100.00
2023-05-14T20:01:06.764Z,100.00
2023-05-14T20:03:34.880Z,100.00
2023-05-14T20:06:08.100Z,100.00
2023-05-14T20:08:36.576Z,100.00
2023-05-14T20:11:03.790Z,100.00
2023-05-14T20:13:37.198Z,100.00
2023-05-14T20:16:07.747Z,100.00
2023-05-14T20:18:35.048Z,100.00
2023-05-14T20:21:07.269Z,100.00
2023-05-14T20:23:38.261Z,100.00
2023-05-14T20:26:08.631Z,100.00
2023-05-14T20:28:36.258Z,100.00
2023-05-14T20:31:08.628Z,100.00
2023-05-14T20:33:39.726Z,100.00
2023-05-14T20:36:07.996Z,100.00
2023-05-14T20:38:36.226Z,100.00
2023-05-14T20:41:07.839Z,100.00
2023-05-14T20:43:38.051Z,100.00
2023-05-14T20:46:08.686Z,100.00
2023-05-14T20:48:36.937Z,100.00
2023-05-14T20:51:07.410Z,100.00
2023-05-14T20:53:35.010Z,100.00
2023-05-14T20:56:04.847Z,100.00
2023-05-14T20:58:32.358Z,100.00
2023-05-14T21:01:00.426Z,100.00
2023-05-14T21:03:33.014Z,100.00
2023-05-14T21:06:06.520Z,100.00
2023-05-14T21:08:37.938Z,100.00
2023-05-14T21:11:08.002Z,100.00
2023-05-14T21:13:35.544Z,100.00
2023-05-14T21:16:02.778Z,100.00
2023-05-14T21:18:33.116Z,100.00
2023-05-14T21:21:07.947Z,100.00
2023-05-14T21:23:35.792Z,100.00
2023-05-14T21:26:06.707Z,100.00
2023-05-14T21:28:35.134Z,100.00
2023-05-14T21:31:06.655Z,100.00
2023-05-14T21:33:33.991Z,100.00
2023-05-14T21:36:04.872Z,100.00
2023-05-14T21:38:34.230Z,100.00
2023-05-14T21:41:08.563Z,100.00
2023-05-14T21:43:36.508Z,100.00
2023-05-14T21:46:06.826Z,100.00
2023-05-14T21:48:35.774Z,100.00
2023-05-14T21:51:04.085Z,100.00
2023-05-14T21:53:38.263Z,100.00
2023-05-14T21:56:12.432Z,100.00
2023-05-14T21:58:45.157Z,100.00
2023-05-14T22:01:17.194Z,100.00
2023-05-14T22:03:50.090Z,100.00
2023-05-14T22:06:22.638Z,100.00
2023-05-14T22:08:50.597Z,100.00
2023-05-14T22:11:20.293Z,100.00
2023-05-14T22:16:36.355Z,100.00
2023-05-14T22:19:12.116Z,100.00
2023-05-14T22:21:43.547Z,100.00
2023-05-14T22:29:38.452Z,100.00
2023-05-14T22:32:09.038Z,100.00
2023-05-14T22:34:40.495Z,100.00
2023-05-14T22:37:11.585Z,100.00
2023-05-14T22:39:43.659Z,100.00
2023-05-14T22:42:14.138Z,100.00
2023-05-14T22:44:59.023Z,100.00
2023-05-14T22:47:34.288Z,100.00
2023-05-14T22:50:13.775Z,100.00
2023-05-14T22:52:42.572Z,100.00
2023-05-14T22:55:24.445Z,100.00
2023-05-14T22:58:04.399Z,100.00
2023-05-14T23:00:32.930Z,100.00
2023-05-14T23:03:09.139Z,100.00
2023-05-14T23:05:37.323Z,100.00
2023-05-14T23:08:12.639Z,100.00
2023-05-14T23:10:47.770Z,100.00
2023-05-14T23:13:20.096Z,100.00
2023-05-14T23:15:51.706Z,100.00
2023-05-14T23:18:21.100Z,100.00
2023-05-14T23:23:43.617Z,100.00
2023-05-14T23:28:58.553Z,100.00
2023-05-14T23:37:02.956Z,100.00
2023-05-14T23:39:40.302Z,100.00
2023-05-14T23:48:17.942Z,100.00
